createdAt,value
2023-12-08T00:00:21.701Z,57.50
2023-12-08T00:03:13.477Z,43.30
2023-12-08T00:05:45.567Z,44.20
2023-12-08T00:08:17.442Z,44.30
2023-12-08T00:10:49.193Z,42.40
2023-12-08T00:13:21.074Z,55.30
2023-12-08T00:15:52.825Z,52.10
2023-12-08T00:18:24.727Z,51.20
2023-12-08T00:20:57.007Z,54.90
2023-12-08T00:23:28.936Z,55.40
2023-12-08T00:26:00.789Z,50.10
2023-12-08T00:28:32.659Z,53.00
2023-12-08T00:31:04.482Z,51.30
2023-12-08T00:33:36.417Z,53.70
2023-12-08T00:36:17.744Z,55.00
2023-12-08T00:38:49.648Z,52.40
2023-12-08T00:41:21.421Z,55.60
2023-12-08T00:43:53.161Z,40.50
2023-12-08T00:46:24.927Z,38.80
2023-12-08T00:48:56.793Z,40.40
2023-12-08T00:51:29.499Z,52.00
2023-12-08T00:54:01.486Z,56.20
2023-12-08T00:56:33.307Z,51.50
2023-12-08T00:59:05.060Z,52.00
2023-12-08T01:01:36.919Z,53.60
2023-12-08T01:04:09.659Z,55.40
2023-12-08T01:06:41.556Z,56.30
2023-12-08T01:09:13.967Z,55.10
2023-12-08T01:11:45.812Z,53.90
2023-12-08T01:14:17.816Z,56.60
2023-12-08T01:16:50.033Z,55.40
2023-12-08T01:19:22.817Z,54.30
2023-12-08T01:21:54.682Z,53.10
2023-12-08T01:24:26.473Z,44.50
2023-12-08T01:26:58.246Z,42.50
2023-12-08T01:29:30.074Z,43.70
2023-12-08T01:32:01.886Z,42.70
2023-12-08T01:34:33.665Z,55.50
2023-12-08T01:37:05.687Z,53.40
2023-12-08T01:39:37.713Z,54.80
2023-12-08T01:42:09.769Z,55.30
2023-12-08T01:44:41.623Z,56.70
2023-12-08T01:47:14.729Z,53.80
2023-12-08T01:49:47.258Z,53.80
2023-12-08T01:52:22.967Z,55.80
2023-12-08T01:55:00.019Z,55.20
2023-12-08T01:57:31.977Z,56.60
2023-12-08T02:00:04.972Z,53.80
2023-12-08T02:02:38.429Z,55.90
2023-12-08T02:05:11.512Z,54.00
2023-12-08T02:07:43.647Z,59.00
2023-12-08T02:10:15.482Z,56.70
2023-12-08T02:12:47.338Z,44.70
2023-12-08T02:15:19.557Z,44.40
2023-12-08T02:17:51.930Z,46.20
2023-12-08T02:20:23.831Z,45.70
2023-12-08T02:22:55.730Z,55.10
2023-12-08T02:25:27.526Z,54.20
2023-12-08T02:27:59.483Z,52.60
2023-12-08T02:30:31.347Z,54.60
2023-12-08T02:33:09.850Z,55.30
2023-12-08T02:35:44.462Z,53.20
2023-12-08T02:38:21.225Z,50.60
2023-12-08T02:40:53.009Z,51.20
2023-12-08T02:43:24.775Z,49.00
2023-12-08T02:45:56.585Z,50.30
2023-12-08T02:48:28.527Z,47.10
2023-12-08T02:51:00.445Z,48.10
2023-12-08T02:53:32.349Z,50.50
2023-12-08T02:56:04.238Z,49.60
2023-12-08T02:58:36.049Z,37.10
2023-12-08T03:01:08.113Z,39.40
2023-12-08T03:03:40.152Z,40.30
2023-12-08T03:06:12.308Z,39.90
2023-12-08T03:08:44.740Z,49.50
2023-12-08T03:11:16.549Z,50.60
2023-12-08T03:13:48.336Z,54.30
2023-12-08T03:16:20.144Z,53.80
2023-12-08T03:18:52.198Z,52.60
2023-12-08T03:21:28.241Z,53.00
2023-12-08T03:24:00.036Z,53.00
2023-12-08T03:26:31.945Z,57.90
2023-12-08T03:29:03.749Z,57.90
2023-12-08T03:31:35.805Z,52.10
2023-12-08T03:34:07.646Z,46.70
2023-12-08T03:36:39.650Z,46.10
2023-12-08T03:39:11.563Z,48.90
2023-12-08T03:41:43.390Z,45.10
2023-12-08T03:44:15.362Z,45.20
2023-12-08T03:46:47.276Z,37.60
2023-12-08T03:49:19.447Z,38.40
2023-12-08T03:51:51.309Z,38.30
2023-12-08T03:54:23.176Z,35.70
2023-12-08T03:56:54.969Z,46.50
2023-12-08T03:59:26.816Z,48.70
2023-12-08T04:01:58.595Z,47.30
2023-12-08T04:04:30.502Z,45.90
2023-12-08T04:07:02.286Z,46.00
2023-12-08T04:09:34.042Z,47.80
2023-12-08T04:12:07.078Z,47.50
2023-12-08T04:14:39.001Z,48.60
2023-12-08T04:17:10.748Z,46.80
2023-12-08T04:19:42.601Z,46.00
2023-12-08T04:22:14.382Z,46.60
2023-12-08T04:24:46.167Z,37.50
2023-12-08T04:27:18.029Z,36.60
2023-12-08T04:29:49.831Z,32.10
2023-12-08T04:32:21.937Z,46.30
2023-12-08T04:34:53.972Z,44.00
2023-12-08T04:37:26.041Z,48.00
2023-12-08T04:39:57.960Z,48.90
2023-12-08T04:42:29.709Z,48.00
2023-12-08T04:45:01.840Z,45.40
2023-12-08T04:47:33.827Z,44.10
2023-12-08T04:50:06.707Z,44.80
2023-12-08T04:52:38.581Z,43.10
2023-12-08T04:55:11.506Z,43.70
2023-12-08T04:57:43.278Z,34.70
2023-12-08T05:00:16.217Z,34.80
2023-12-08T05:02:48.847Z,34.30
2023-12-08T05:05:21.029Z,32.80
2023-12-08T05:07:52.882Z,47.30
2023-12-08T05:10:24.649Z,42.50
2023-12-08T05:12:56.414Z,43.80
2023-12-08T05:15:28.387Z,42.90
2023-12-08T05:18:00.272Z,48.60
2023-12-08T05:20:32.353Z,45.30
2023-12-08T05:23:04.078Z,47.30
2023-12-08T05:25:36.267Z,43.50
2023-12-08T05:28:08.343Z,44.00
2023-12-08T05:30:40.145Z,41.40
2023-12-08T05:33:12.024Z,43.80
2023-12-08T05:35:43.874Z,45.60
2023-12-08T05:38:15.648Z,46.10
2023-12-08T05:40:47.530Z,42.50
2023-12-08T05:43:20.262Z,33.90
2023-12-08T05:45:52.031Z,32.30
2023-12-08T05:48:23.937Z,30.50
2023-12-08T05:50:55.836Z,33.40
2023-12-08T05:53:27.723Z,41.40
2023-12-08T05:55:59.540Z,44.00
2023-12-08T05:58:31.333Z,44.40
2023-12-08T06:01:03.117Z,43.90
2023-12-08T06:03:34.938Z,39.90
2023-12-08T06:06:07.633Z,38.80
2023-12-08T06:08:39.584Z,42.70
2023-12-08T06:11:11.844Z,40.40
2023-12-08T06:13:43.839Z,42.30
2023-12-08T06:16:15.695Z,42.90
2023-12-08T06:18:47.756Z,43.30
2023-12-08T06:21:19.665Z,45.40
2023-12-08T06:23:51.477Z,34.30
2023-12-08T06:26:25.276Z,35.60
2023-12-08T06:28:57.054Z,33.80
2023-12-08T06:31:28.819Z,44.30
2023-12-08T06:34:09.590Z,41.50
2023-12-08T06:36:50.744Z,34.90
2023-12-08T06:39:22.766Z,29.00
2023-12-08T06:41:54.572Z,32.30
2023-12-08T06:44:26.365Z,31.40
2023-12-08T06:46:58.107Z,26.50
2023-12-08T06:49:30.130Z,24.60
2023-12-08T06:52:01.992Z,23.90
2023-12-08T06:54:34.270Z,30.70
2023-12-08T06:57:06.795Z,28.30
2023-12-08T06:59:38.657Z,29.10
2023-12-08T07:02:10.587Z,26.80
2023-12-08T07:04:42.542Z,27.20
2023-12-08T07:07:16.684Z,22.20
2023-12-08T07:09:48.508Z,22.30
2023-12-08T07:12:20.280Z,25.30
2023-12-08T07:14:53.858Z,29.90
2023-12-08T07:17:26.202Z,26.00
2023-12-08T07:19:58.429Z,29.90
2023-12-08T07:22:31.442Z,30.40
2023-12-08T07:25:04.240Z,31.40
2023-12-08T07:27:36.004Z,31.80
2023-12-08T07:30:10.106Z,26.60
2023-12-08T07:32:42.195Z,25.70
2023-12-08T07:35:14.202Z,23.30
2023-12-08T07:37:46.013Z,32.10
2023-12-08T07:40:19.610Z,27.60
2023-12-08T07:42:51.606Z,27.20
2023-12-08T07:45:23.439Z,28.50
2023-12-08T07:47:55.453Z,30.40
2023-12-08T07:50:27.362Z,29.10
2023-12-08T07:52:59.275Z,25.30
2023-12-08T07:55:31.415Z,22.30
2023-12-08T07:58:03.398Z,28.20
2023-12-08T08:00:35.268Z,30.70
2023-12-08T08:03:07.162Z,27.80
2023-12-08T08:05:39.189Z,27.10
2023-12-08T08:08:11.031Z,24.00
2023-12-08T08:10:43.849Z,24.00
2023-12-08T08:13:16.270Z,19.80
2023-12-08T08:15:48.226Z,18.20
2023-12-08T08:18:20.150Z,24.80
2023-12-08T08:20:52.127Z,22.00
2023-12-08T08:23:23.914Z,23.20
2023-12-08T08:25:57.103Z,26.60
2023-12-08T08:28:29.623Z,23.00
2023-12-08T08:31:01.514Z,18.40
2023-12-08T08:33:33.408Z,19.30
2023-12-08T08:36:07.318Z,25.90
2023-12-08T08:38:39.167Z,26.20
2023-12-08T08:41:12.291Z,23.60
2023-12-08T08:43:44.581Z,22.20
2023-12-08T08:46:16.857Z,23.10
2023-12-08T08:48:49.078Z,19.00
2023-12-08T08:51:20.994Z,21.20
2023-12-08T08:53:55.655Z,23.00
2023-12-08T08:56:27.601Z,22.50
2023-12-08T08:58:59.442Z,22.10
2023-12-08T09:01:31.226Z,22.40
2023-12-08T09:04:04.054Z,23.10
2023-12-08T09:06:36.301Z,20.80
2023-12-08T09:09:09.294Z,20.80
2023-12-08T09:11:41.298Z,27.70
2023-12-08T09:14:13.141Z,26.00
2023-12-08T09:16:45.009Z,27.10
2023-12-08T09:19:16.923Z,22.90
2023-12-08T09:21:54.069Z,22.80
2023-12-08T09:24:27.359Z,21.30
2023-12-08T09:27:01.846Z,23.60
2023-12-08T09:29:33.695Z,18.60
2023-12-08T09:32:05.840Z,21.60
2023-12-08T09:34:39.758Z,20.80
2023-12-08T09:37:26.755Z,17.40
2023-12-08T09:40:03.993Z,19.50
2023-12-08T09:42:41.479Z,23.20
2023-12-08T09:45:13.906Z,19.90
2023-12-08T09:47:50.117Z,18.70
2023-12-08T09:50:22.657Z,19.10
2023-12-08T09:52:56.119Z,23.10
2023-12-08T09:58:00.824Z,18.10
2023-12-08T10:00:35.001Z,19.40
2023-12-08T10:03:07.230Z,18.40
2023-12-08T10:05:39.222Z,17.70
2023-12-08T10:08:12.459Z,17.30
2023-12-08T10:10:44.710Z,15.10
2023-12-08T10:13:16.858Z,13.80
2023-12-08T10:15:51.751Z,19.70
2023-12-08T10:18:27.612Z,21.50
2023-12-08T10:21:16.778Z,18.20
2023-12-08T10:23:49.451Z,18.50
2023-12-08T10:26:25.396Z,21.60
2023-12-08T10:28:59.459Z,20.40
2023-12-08T10:31:31.848Z,19.00
2023-12-08T10:34:06.495Z,20.90
2023-12-08T10:36:39.580Z,16.50
2023-12-08T10:39:12.304Z,17.50
2023-12-08T10:41:44.321Z,19.80
2023-12-08T10:44:19.808Z,21.40
2023-12-08T10:46:52.412Z,22.10
2023-12-08T10:49:25.127Z,23.10
2023-12-08T10:51:57.822Z,20.10
2023-12-08T10:54:30.084Z,20.30
2023-12-08T10:57:02.364Z,22.90
2023-12-08T10:59:39.105Z,19.30
2023-12-08T11:02:22.487Z,20.00
2023-12-08T11:04:59.013Z,18.90
2023-12-08T11:07:35.758Z,19.90
2023-12-08T11:10:12.665Z,15.20
2023-12-08T11:12:50.693Z,16.60
2023-12-08T11:15:25.120Z,19.20
2023-12-08T11:18:05.424Z,22.50
2023-12-08T11:20:37.517Z,22.10
2023-12-08T11:23:10.045Z,22.10
2023-12-08T11:25:47.207Z,24.60
2023-12-08T11:28:29.392Z,26.70
2023-12-08T11:31:06.872Z,18.10
2023-12-08T11:33:45.035Z,19.00
2023-12-08T11:36:20.641Z,22.00
2023-12-08T11:38:52.831Z,18.30
2023-12-08T11:41:26.210Z,21.70
2023-12-08T11:44:04.311Z,20.10
2023-12-08T11:46:36.204Z,21.50
2023-12-08T11:49:08.183Z,21.40
2023-12-08T11:51:41.270Z,21.60
2023-12-08T11:54:13.047Z,19.40
2023-12-08T11:56:47.193Z,17.40
2023-12-08T11:59:25.790Z,18.40
2023-12-08T12:01:58.247Z,20.50
2023-12-08T12:04:31.777Z,20.20
2023-12-08T12:09:36.094Z,21.70
2023-12-08T12:12:20.988Z,21.10
2023-12-08T12:14:56.774Z,19.20
2023-12-08T12:17:29.156Z,18.20
2023-12-08T12:20:02.017Z,18.20
2023-12-08T12:22:33.856Z,21.30
2023-12-08T12:25:06.617Z,20.50
2023-12-08T12:27:43.404Z,22.50
2023-12-08T12:30:17.636Z,19.30
2023-12-08T12:32:51.324Z,16.70
2023-12-08T12:35:23.143Z,16.40
2023-12-08T12:37:56.180Z,16.90
2023-12-08T12:40:27.997Z,20.10
2023-12-08T12:42:59.833Z,18.70
2023-12-08T12:45:32.918Z,19.10
2023-12-08T12:48:08.894Z,24.60
2023-12-08T12:50:53.083Z,23.30
2023-12-08T12:56:08.642Z,17.50
2023-12-08T12:58:40.916Z,17.50
2023-12-08T13:01:16.645Z,15.50
2023-12-08T13:03:49.634Z,19.80
2023-12-08T13:06:31.066Z,24.80
2023-12-08T13:09:05.878Z,21.10
2023-12-08T13:11:38.323Z,22.80
2023-12-08T13:14:10.184Z,22.50
2023-12-08T13:16:43.136Z,23.90
2023-12-08T13:19:15.057Z,24.50
2023-12-08T13:21:46.993Z,23.60
2023-12-08T13:24:18.815Z,25.50
2023-12-08T13:26:50.598Z,23.40
2023-12-08T13:29:22.323Z,16.50
2023-12-08T13:31:54.132Z,20.80
2023-12-08T13:34:26.419Z,20.60
2023-12-08T13:36:58.363Z,16.60
2023-12-08T13:39:30.589Z,19.50
2023-12-08T13:42:02.566Z,20.90
2023-12-08T13:44:34.337Z,15.80
2023-12-08T13:47:06.835Z,16.80
2023-12-08T13:49:38.820Z,20.40
2023-12-08T13:52:10.847Z,23.80
2023-12-08T13:54:42.832Z,23.30
2023-12-08T13:57:14.629Z,21.90
2023-12-08T13:59:46.447Z,17.90
2023-12-08T14:02:18.215Z,17.00
2023-12-08T14:04:50.211Z,17.30
2023-12-08T14:07:22.021Z,20.60
2023-12-08T14:09:53.830Z,20.50
2023-12-08T14:12:25.715Z,19.90
2023-12-08T14:14:57.597Z,19.90
2023-12-08T14:17:30.820Z,18.40
2023-12-08T14:22:33.267Z,21.90
2023-12-08T14:25:05.244Z,21.40
2023-12-08T14:27:37.908Z,22.30
2023-12-08T14:30:11.771Z,20.00
2023-12-08T14:32:43.631Z,21.80
2023-12-08T14:35:23.208Z,22.20
2023-12-08T14:38:02.094Z,22.50
2023-12-08T14:40:34.359Z,19.20
2023-12-08T14:43:07.259Z,20.60
2023-12-08T14:45:39.937Z,20.30
2023-12-08T14:48:11.803Z,27.20
2023-12-08T14:50:44.858Z,32.30
2023-12-08T14:53:16.685Z,30.00
2023-12-08T14:55:59.062Z,26.20
2023-12-08T14:58:32.078Z,24.80
2023-12-08T15:01:04.003Z,31.80
2023-12-08T15:03:35.990Z,28.40
2023-12-08T15:06:08.403Z,33.80
2023-12-08T15:08:40.372Z,21.50
2023-12-08T15:11:12.229Z,26.10
2023-12-08T15:13:44.110Z,26.60
2023-12-08T15:16:16.060Z,22.50
2023-12-08T15:18:47.904Z,25.70
2023-12-08T15:21:22.920Z,24.10
2023-12-08T15:23:58.265Z,23.60
2023-12-08T15:26:30.895Z,19.00
2023-12-08T15:29:02.698Z,19.00
2023-12-08T15:31:34.583Z,20.40
2023-12-08T15:34:07.401Z,21.40
2023-12-08T15:36:39.915Z,18.10
2023-12-08T15:39:11.753Z,20.30
2023-12-08T15:41:46.065Z,23.90
2023-12-08T15:44:17.876Z,25.10
2023-12-08T15:46:49.665Z,28.70
2023-12-08T15:49:21.592Z,16.40
2023-12-08T15:51:56.562Z,18.00
2023-12-08T15:54:28.341Z,22.80
2023-12-08T15:57:00.097Z,22.30
2023-12-08T15:59:33.073Z,22.90
2023-12-08T16:02:06.451Z,20.50
2023-12-08T16:04:38.248Z,20.20
2023-12-08T16:07:10.018Z,24.20
2023-12-08T16:09:45.138Z,17.10
2023-12-08T16:12:18.475Z,19.10
2023-12-08T16:14:50.575Z,23.20
2023-12-08T16:17:22.584Z,26.10
2023-12-08T16:19:54.462Z,18.60
2023-12-08T16:22:26.516Z,22.90
2023-12-08T16:24:58.370Z,21.70
2023-12-08T16:27:30.366Z,22.10
2023-12-08T16:30:02.496Z,17.20
2023-12-08T16:32:36.291Z,17.50
2023-12-08T16:35:09.826Z,20.60
2023-12-08T16:37:41.661Z,19.70
2023-12-08T16:40:15.603Z,17.00
2023-12-08T16:42:47.435Z,18.70
2023-12-08T16:45:19.276Z,18.60
2023-12-08T16:47:51.083Z,18.60
2023-12-08T16:50:22.935Z,14.20
2023-12-08T16:52:54.739Z,16.70
2023-12-08T16:55:26.614Z,19.00
2023-12-08T16:58:03.794Z,20.50
2023-12-08T17:00:35.587Z,22.70
2023-12-08T17:03:07.476Z,21.60
2023-12-08T17:05:39.301Z,24.60
2023-12-08T17:08:11.045Z,24.70
2023-12-08T17:10:43.241Z,22.80
2023-12-08T17:13:15.091Z,24.60
2023-12-08T17:15:46.905Z,23.60
2023-12-08T17:18:18.941Z,25.30
2023-12-08T17:20:50.859Z,22.50
2023-12-08T17:23:22.638Z,21.80
2023-12-08T17:25:54.431Z,18.00
2023-12-08T17:28:26.182Z,17.70
2023-12-08T17:30:59.422Z,21.70
2023-12-08T17:33:31.500Z,19.30
2023-12-08T17:36:04.649Z,21.30
2023-12-08T17:38:36.435Z,23.00
2023-12-08T17:41:09.222Z,23.60
2023-12-08T17:43:40.971Z,26.50
2023-12-08T17:46:13.597Z,22.40
2023-12-08T17:48:46.718Z,21.80
2023-12-08T17:51:19.541Z,20.10
2023-12-08T17:53:51.439Z,22.10
2023-12-08T17:56:23.247Z,24.50
2023-12-08T17:58:55.012Z,22.30
2023-12-08T18:01:26.858Z,21.90
2023-12-08T18:03:58.647Z,20.70
2023-12-08T18:06:30.551Z,19.90
2023-12-08T18:09:05.023Z,19.70
2023-12-08T18:11:36.962Z,19.20
2023-12-08T18:14:08.773Z,18.80
2023-12-08T18:16:48.132Z,15.70
2023-12-08T18:19:22.038Z,15.80
2023-12-08T18:21:53.973Z,15.50
2023-12-08T18:24:25.888Z,20.30
2023-12-08T18:26:57.704Z,21.00
2023-12-08T18:29:30.255Z,26.30
2023-12-08T18:32:02.127Z,25.80
2023-12-08T18:34:37.500Z,23.90
2023-12-08T18:37:09.758Z,21.90
2023-12-08T18:39:41.635Z,19.70
2023-12-08T18:42:13.437Z,17.00
2023-12-08T18:44:45.327Z,15.70
2023-12-08T18:47:17.994Z,20.80
2023-12-08T18:49:50.305Z,25.20
2023-12-08T18:52:22.293Z,24.40
2023-12-08T18:54:54.058Z,24.70
2023-12-08T18:57:25.955Z,25.20
2023-12-08T19:00:00.784Z,23.50
2023-12-08T19:02:32.807Z,19.30
2023-12-08T19:05:05.419Z,20.50
2023-12-08T19:07:37.614Z,19.30
2023-12-08T19:10:10.846Z,21.90
2023-12-08T19:12:42.705Z,26.10
2023-12-08T19:15:14.988Z,24.60
2023-12-08T19:17:47.601Z,21.40
2023-12-08T19:20:19.602Z,20.00
2023-12-08T19:22:51.423Z,19.50
2023-12-08T19:25:23.305Z,15.40
2023-12-08T19:27:55.487Z,14.00
2023-12-08T19:30:28.033Z,18.20
2023-12-08T19:32:59.924Z,17.50
2023-12-08T19:35:31.988Z,14.20
2023-12-08T19:38:04.354Z,15.80
2023-12-08T19:40:36.411Z,17.70
2023-12-08T19:43:09.366Z,19.30
2023-12-08T19:45:41.334Z,14.70
2023-12-08T19:48:16.327Z,15.70
2023-12-08T19:50:49.114Z,16.90
2023-12-08T19:53:20.949Z,17.00
2023-12-08T19:55:52.782Z,15.50
2023-12-08T19:58:24.895Z,17.10
2023-12-08T20:00:56.784Z,19.00
2023-12-08T20:03:28.674Z,19.30
2023-12-08T20:06:00.749Z,14.60
2023-12-08T20:08:32.705Z,14.50
2023-12-08T20:11:06.248Z,15.10
2023-12-08T20:13:38.028Z,20.00
2023-12-08T20:16:10.554Z,18.60
2023-12-08T20:18:42.537Z,20.30
2023-12-08T20:21:14.396Z,19.00
2023-12-08T20:23:46.310Z,24.50
2023-12-08T20:26:18.074Z,21.50
2023-12-08T20:28:49.929Z,21.30
2023-12-08T20:31:22.189Z,18.50
2023-12-08T20:33:54.057Z,16.80
2023-12-08T20:36:26.416Z,20.30
2023-12-08T20:38:59.075Z,18.10
2023-12-08T20:41:30.944Z,20.50
2023-12-08T20:44:02.940Z,22.60
2023-12-08T20:46:34.926Z,21.70
2023-12-08T20:49:07.134Z,21.60
2023-12-08T20:51:39.156Z,19.90
2023-12-08T20:54:11.154Z,20.20
2023-12-08T20:56:43.174Z,19.10
2023-12-08T20:59:14.977Z,20.40
2023-12-08T21:01:46.748Z,20.90
2023-12-08T21:04:18.537Z,17.90
2023-12-08T21:06:50.424Z,16.80
2023-12-08T21:09:22.294Z,16.80
2023-12-08T21:11:54.121Z,20.50
2023-12-08T21:14:25.948Z,17.50
2023-12-08T21:16:58.323Z,20.30
2023-12-08T21:19:31.656Z,21.80
2023-12-08T21:22:04.979Z,19.90
2023-12-08T21:27:07.600Z,18.00
2023-12-08T21:29:39.840Z,23.30
2023-12-08T21:32:11.640Z,18.00
2023-12-08T21:34:43.450Z,18.50
2023-12-08T21:37:15.227Z,17.80
2023-12-08T21:39:47.865Z,24.60
2023-12-08T21:42:19.723Z,23.80
2023-12-08T21:44:51.502Z,25.90
2023-12-08T21:47:23.316Z,22.40
2023-12-08T21:49:55.124Z,20.20
2023-12-08T21:52:26.866Z,20.70
2023-12-08T21:54:58.600Z,18.80
2023-12-08T21:57:30.625Z,20.30
2023-12-08T22:00:02.727Z,17.10
2023-12-08T22:02:34.631Z,16.70
2023-12-08T22:05:07.020Z,16.80
2023-12-08T22:07:38.982Z,14.40
2023-12-08T22:10:11.898Z,20.80
2023-12-08T22:12:43.671Z,21.50
2023-12-08T22:15:15.475Z,19.70
2023-12-08T22:17:47.396Z,20.50
2023-12-08T22:20:19.547Z,20.20
2023-12-08T22:22:51.451Z,19.50
2023-12-08T22:25:23.281Z,21.60
2023-12-08T22:27:55.102Z,16.10
2023-12-08T22:30:27.017Z,17.70
2023-12-08T22:32:58.875Z,15.90
2023-12-08T22:35:30.798Z,15.60
2023-12-08T22:38:02.594Z,22.00
2023-12-08T22:40:34.573Z,21.10
2023-12-08T22:43:06.353Z,23.00
2023-12-08T22:45:38.691Z,22.80
2023-12-08T22:48:10.696Z,21.20
2023-12-08T22:50:49.098Z,19.10
2023-12-08T22:53:24.355Z,21.10
2023-12-08T22:55:56.114Z,16.90
2023-12-08T22:58:27.886Z,15.30
2023-12-08T23:00:59.877Z,18.90
2023-12-08T23:03:31.752Z,18.30
2023-12-08T23:06:03.978Z,20.00
2023-12-08T23:08:35.909Z,19.20
2023-12-08T23:11:08.487Z,20.90
2023-12-08T23:13:40.251Z,20.50
2023-12-08T23:16:12.119Z,15.70
2023-12-08T23:18:43.965Z,15.10
2023-12-08T23:21:15.985Z,16.00
2023-12-08T23:23:47.770Z,20.00
2023-12-08T23:26:19.611Z,20.80
2023-12-08T23:28:51.793Z,20.50
2023-12-08T23:31:23.633Z,20.00
2023-12-08T23:33:55.834Z,20.90
2023-12-08T23:36:27.836Z,20.10
2023-12-08T23:38:59.676Z,19.50
2023-12-08T23:41:31.511Z,17.10
2023-12-08T23:44:03.329Z,16.20
2023-12-08T23:46:35.207Z,16.50
2023-12-08T23:49:07.209Z,22.10
2023-12-08T23:51:39.083Z,20.50
2023-12-08T23:54:11.124Z,21.30
2023-12-08T23:56:42.946Z,20.00
2023-12-08T23:59:14.740Z,20.20
